Time;durP1;ratioP1;P1;durP2;ratioP2;P2;SDS_P1;SDS_P2;PMS_P1;PMS_P2;Temp;Humidity;BMP_temperature;BMP_pressure;BME280_temperature;BME280_humidity;BME280_pressure;Samples;Min_cycle;Max_cycle;Signal;HPM_P1;HPM_P2
2022/08/23 00:00:04;;;;;;;20.10;10.87;;;20.60;99.90;;;;;;4843261;29;20206;-79
2022/08/23 00:02:39;;;;;;;23.80;10.73;;;20.60;99.90;;;;;;4849537;29;20241;-79
2022/08/23 00:05:08;;;;;;;20.73;11.03;;;20.60;99.90;;;;;;4848282;29;20202;-79
2022/08/23 00:07:42;;;;;;;22.70;11.70;;;20.60;99.90;;;;;;4846474;29;20206;-80
2022/08/23 00:10:11;;;;;;;25.47;11.03;;;20.60;99.90;;;;;;4858681;24;20246;-79
2022/08/23 00:12:39;;;;;;;28.47;11.40;;;20.60;99.90;;;;;;4842654;29;20289;-80
2022/08/23 00:15:08;;;;;;;26.30;11.23;;;20.60;99.90;;;;;;4843300;29;20688;-79
2022/08/23 00:17:36;;;;;;;28.40;11.90;;;20.60;99.90;;;;;;4843205;29;20264;-80
2022/08/23 00:20:15;;;;;;;29.87;11.43;;;20.70;99.90;;;;;;4842339;29;20206;-81
2022/08/23 00:23:00;;;;;;;22.80;10.93;;;20.60;99.90;;;;;;4842062;29;20210;-80
2022/08/23 00:25:45;;;;;;;24.73;11.13;;;20.70;99.90;;;;;;4842679;29;20195;-80
2022/08/23 00:28:16;;;;;;;23.80;11.43;;;20.70;99.90;;;;;;4827959;29;20206;-79
2022/08/23 00:30:42;;;;;;;27.37;11.70;;;20.60;99.90;;;;;;4842105;29;20633;-79
2022/08/23 00:33:09;;;;;;;21.70;11.57;;;20.60;99.90;;;;;;4835590;29;20243;-78
2022/08/23 00:35:37;;;;;;;25.43;11.30;;;20.60;99.90;;;;;;4823289;29;20207;-78
2022/08/23 00:38:04;;;;;;;19.60;10.63;;;20.60;99.90;;;;;;4822937;29;20230;-78
2022/08/23 00:40:55;;;;;;;22.70;10.70;;;20.60;99.90;;;;;;4823991;29;20195;-80
2022/08/23 00:49:30;;;;;;;22.43;11.73;;;20.70;99.90;;;;;;4823295;29;20297;-79
2022/08/23 00:52:06;;;;;;;28.67;12.60;;;20.80;99.90;;;;;;4822886;29;20293;-78
2022/08/23 00:54:35;;;;;;;22.87;11.37;;;20.80;99.90;;;;;;4823547;29;20206;-80
2022/08/23 00:57:05;;;;;;;25.37;11.87;;;20.80;99.90;;;;;;4823320;29;20549;-80
2022/08/23 01:05:16;;;;;;;28.47;11.37;;;20.80;99.90;;;;;;4840833;29;20948;-80
2022/08/23 01:08:09;;;;;;;23.20;11.83;;;20.90;99.90;;;;;;4770951;30;20303;-80
2022/08/23 01:10:46;;;;;;;23.63;11.10;;;20.80;99.90;;;;;;4819299;29;20206;-79
2022/08/23 01:13:29;;;;;;;27.00;11.80;;;20.90;99.90;;;;;;4825846;29;20280;-80
2022/08/23 01:16:34;;;;;;;21.30;11.20;;;20.90;99.90;;;;;;4842497;29;20231;-79
2022/08/23 01:19:20;;;;;;;24.93;11.73;;;20.90;99.90;;;;;;4810918;29;20253;-80
2022/08/23 01:22:50;;;;;;;24.30;11.97;;;20.90;99.90;;;;;;4842008;29;20220;-79
2022/08/23 01:28:07;;;;;;;21.90;11.00;;;20.80;99.90;;;;;;4825507;29;20208;-78
2022/08/23 01:30:41;;;;;;;30.10;11.73;;;20.80;99.90;;;;;;4816667;24;20651;-78
2022/08/23 01:33:09;;;;;;;25.60;11.10;;;20.80;99.90;;;;;;4786484;29;20342;-78
2022/08/23 01:35:54;;;;;;;26.13;12.23;;;20.80;99.90;;;;;;4787959;30;20196;-78
2022/08/23 01:38:28;;;;;;;29.73;12.70;;;20.80;99.90;;;;;;4786180;30;20649;-79
2022/08/23 01:41:25;;;;;;;24.63;12.17;;;20.80;99.90;;;;;;4772744;30;20678;-78
2022/08/23 01:44:24;;;;;;;22.93;11.60;;;20.80;99.90;;;;;;4785409;30;20211;-79
2022/08/23 01:46:54;;;;;;;29.07;13.13;;;20.70;99.90;;;;;;4783397;30;20208;-79
2022/08/23 01:49:23;;;;;;;22.20;12.50;;;20.70;99.90;;;;;;4787120;30;20597;-78
2022/08/23 01:51:50;;;;;;;23.70;12.23;;;20.60;99.90;;;;;;4771427;30;20238;-78
2022/08/23 01:54:29;;;;;;;26.00;12.30;;;20.60;99.90;;;;;;4771754;30;20291;-78
2022/08/23 01:56:56;;;;;;;31.10;14.37;;;20.50;99.90;;;;;;4786300;30;20204;-78
2022/08/23 01:59:23;;;;;;;28.13;14.33;;;20.50;99.90;;;;;;4770891;30;20371;-80
2022/08/23 02:01:53;;;;;;;27.40;13.17;;;20.60;99.90;;;;;;4770898;30;20208;-79
2022/08/23 02:04:22;;;;;;;30.53;13.17;;;20.50;99.90;;;;;;4771480;30;20678;-78
2022/08/23 02:06:49;;;;;;;29.73;14.23;;;20.50;99.90;;;;;;4787648;30;20559;-79
2022/08/23 02:09:16;;;;;;;20.23;11.97;;;20.40;99.90;;;;;;4787260;30;20258;-78
2022/08/23 02:11:44;;;;;;;26.43;12.17;;;20.40;99.90;;;;;;4787496;30;20200;-78
2022/08/23 02:14:17;;;;;;;24.90;12.43;;;20.40;99.90;;;;;;4771084;30;20653;-78
2022/08/23 02:16:47;;;;;;;27.47;12.10;;;20.40;99.90;;;;;;4771047;30;20303;-77
2022/08/23 02:19:31;;;;;;;25.97;12.60;;;20.40;99.90;;;;;;4789889;30;20243;-79
2022/08/23 02:21:58;;;;;;;33.63;13.53;;;20.40;99.90;;;;;;4974014;24;20275;-78
2022/08/23 02:24:25;;;;;;;20.63;12.57;;;20.40;99.90;;;;;;4825746;29;20235;-78
2022/08/23 02:26:56;;;;;;;24.07;12.97;;;20.40;99.90;;;;;;4810205;29;20209;-78
2022/08/23 02:29:28;;;;;;;29.27;13.33;;;20.40;99.90;;;;;;4826329;29;20311;-78
2022/08/23 02:31:56;;;;;;;20.33;12.20;;;20.40;99.90;;;;;;4809809;29;20234;-78
2022/08/23 02:34:24;;;;;;;22.43;12.33;;;20.40;99.90;;;;;;4809767;29;20246;-79
2022/08/23 02:36:59;;;;;;;24.50;12.60;;;20.40;99.90;;;;;;4810315;29;20203;-78
2022/08/23 02:42:08;;;;;;;21.40;11.87;;;20.40;99.90;;;;;;4787774;30;20306;-79
2022/08/23 02:44:38;;;;;;;22.83;12.33;;;20.30;99.90;;;;;;4789012;30;20227;-80
2022/08/23 02:47:14;;;;;;;18.80;12.17;;;20.30;99.90;;;;;;4790633;30;20285;-78
2022/08/23 02:49:41;;;;;;;20.43;12.30;;;20.30;99.90;;;;;;4788980;30;20243;-78
2022/08/23 02:52:08;;;;;;;21.67;12.73;;;20.30;99.90;;;;;;4773620;30;20216;-80
2022/08/23 02:54:41;;;;;;;29.37;13.57;;;20.40;99.90;;;;;;4788775;30;20403;-79
2022/08/23 02:57:07;;;;;;;21.43;12.17;;;20.30;99.90;;;;;;4790334;30;20204;-80
2022/08/23 02:59:35;;;;;;;25.63;12.53;;;20.30;99.90;;;;;;4788604;29;20236;-80
2022/08/23 03:02:04;;;;;;;25.13;12.80;;;20.30;99.90;;;;;;4788460;30;20912;-80
2022/08/23 03:04:31;;;;;;;24.17;12.53;;;20.30;99.90;;;;;;4788713;30;20223;-79
2022/08/23 03:06:58;;;;;;;23.67;13.00;;;20.30;99.90;;;;;;4788855;30;20208;-78
2022/08/23 03:09:25;;;;;;;22.27;12.27;;;20.20;99.90;;;;;;4773751;30;20220;-79
2022/08/23 03:14:20;;;;;;;29.80;13.67;;;20.20;99.90;;;;;;5004822;24;20237;-79
2022/08/23 03:20:03;;;;;;;21.97;12.53;;;20.20;99.90;;;;;;4898176;24;20242;-80
2022/08/23 03:22:30;;;;;;;23.00;12.20;;;20.20;99.90;;;;;;4842552;29;20292;-79
2022/08/23 03:24:57;;;;;;;20.77;11.50;;;20.20;99.90;;;;;;4827902;29;20212;-79
2022/08/23 03:27:24;;;;;;;21.97;11.97;;;20.20;99.90;;;;;;4828018;29;20212;-79
2022/08/23 03:29:51;;;;;;;22.50;11.70;;;20.20;99.90;;;;;;4841970;29;20301;-79
2022/08/23 03:32:18;;;;;;;21.07;12.00;;;20.20;99.90;;;;;;4849329;24;20329;-79
2022/08/23 03:34:45;;;;;;;28.67;12.67;;;20.20;99.90;;;;;;4825791;29;20250;-79
2022/08/23 03:37:13;;;;;;;24.73;12.57;;;20.20;99.90;;;;;;4824675;29;20211;-78
2022/08/23 03:40:03;;;;;;;23.43;12.50;;;20.20;99.90;;;;;;4833614;24;20334;-79
2022/08/23 03:42:57;;;;;;;20.57;11.43;;;20.20;99.90;;;;;;4814098;29;20685;-78
2022/08/23 03:45:24;;;;;;;17.37;11.30;;;20.20;99.90;;;;;;4791656;29;20208;-79
2022/08/23 03:47:51;;;;;;;20.93;11.40;;;20.20;99.90;;;;;;4800231;29;20203;-79
2022/08/23 03:52:56;;;;;;;21.77;12.23;;;20.20;99.90;;;;;;4863280;24;20788;-79
2022/08/23 03:55:45;;;;;;;22.87;11.77;;;20.20;99.90;;;;;;4842423;29;20573;-80
2022/08/23 03:58:12;;;;;;;24.57;12.43;;;20.20;99.90;;;;;;4842271;29;20226;-80
2022/08/23 04:00:39;;;;;;;19.77;11.83;;;20.20;99.90;;;;;;4842202;29;20293;-80
2022/08/23 04:03:06;;;;;;;22.13;12.63;;;20.20;99.90;;;;;;4843384;29;20285;-80
2022/08/23 04:05:36;;;;;;;22.97;12.87;;;20.20;99.90;;;;;;4826968;29;20228;-80
2022/08/23 04:08:10;;;;;;;31.13;14.50;;;20.20;99.90;;;;;;4842214;29;20736;-79
2022/08/23 04:10:37;;;;;;;26.93;13.17;;;20.10;99.90;;;;;;4842121;29;20297;-80
2022/08/23 04:16:03;;;;;;;20.30;13.40;;;20.10;99.90;;;;;;4847099;24;20250;-81
2022/08/23 04:19:12;;;;;;;22.17;13.43;;;20.10;99.90;;;;;;4789714;29;20603;-79
2022/08/23 04:22:27;;;;;;;22.30;13.70;;;20.10;99.90;;;;;;4766879;29;20207;-80
2022/08/23 04:25:26;;;;;;;23.63;13.30;;;20.20;99.90;;;;;;4805088;29;20226;-79
2022/08/23 04:28:03;;;;;;;26.93;14.30;;;20.10;99.90;;;;;;4790157;29;20625;-80
2022/08/23 04:31:22;;;;;;;23.20;13.03;;;20.20;99.90;;;;;;4805851;29;20214;-79
2022/08/23 04:34:01;;;;;;;30.57;14.27;;;20.20;99.90;;;;;;4779421;30;20228;-79
2022/08/23 04:36:40;;;;;;;25.27;13.17;;;20.20;99.90;;;;;;4774380;30;20269;-80
2022/08/23 04:39:21;;;;;;;23.37;13.07;;;20.20;99.90;;;;;;4770787;30;20232;-81
2022/08/23 04:42:22;;;;;;;23.13;12.60;;;20.20;99.90;;;;;;4852729;24;20241;-81
2022/08/23 04:48:52;;;;;;;22.63;12.73;;;20.20;99.90;;;;;;4815059;29;20309;-80
2022/08/23 04:51:21;;;;;;;20.83;12.47;;;20.20;99.90;;;;;;5041957;24;20245;-80
2022/08/23 04:54:25;;;;;;;21.10;13.33;;;20.20;99.90;;;;;;4842702;29;20205;-81
2022/08/23 04:57:17;;;;;;;22.23;13.37;;;20.20;99.90;;;;;;4841568;29;20237;-80
2022/08/23 04:59:52;;;;;;;23.07;13.87;;;20.20;99.90;;;;;;4841430;29;20684;-80
2022/08/23 05:06:38;;;;;;;24.03;12.53;;;20.20;99.90;;;;;;4851165;24;20582;-81
2022/08/23 05:14:03;;;;;;;19.70;12.03;;;20.30;99.90;;;;;;4770672;30;20302;-80
2022/08/23 05:16:32;;;;;;;23.70;13.07;;;20.20;99.90;;;;;;4785554;30;20273;-82
2022/08/23 05:19:02;;;;;;;18.80;12.80;;;20.20;99.90;;;;;;4770785;30;20216;-81
2022/08/23 05:21:35;;;;;;;18.00;12.77;;;20.10;99.90;;;;;;4773997;30;20219;-81
2022/08/23 05:30:13;;;;;;;21.57;13.20;;;20.30;99.90;;;;;;4813423;29;20266;-80
2022/08/23 05:45:38;;;;;;;21.57;13.13;;;20.30;99.90;;;;;;5108210;24;20245;-80
2022/08/23 06:08:11;;;;;;;19.53;11.60;;;21.00;99.90;;;;;;4847734;29;20640;-81
2022/08/23 06:29:42;;;;;;;26.33;11.63;;;21.60;99.90;;;;;;3431122;24;20198;-81
2022/08/23 06:32:54;;;;;;;21.77;10.53;;;21.80;99.90;;;;;;4819630;24;20242;-80
2022/08/23 06:36:39;;;;;;;17.93;10.37;;;21.90;99.90;;;;;;4838234;24;20199;-81
2022/08/23 06:39:26;;;;;;;23.33;11.23;;;22.00;99.90;;;;;;4740985;30;20403;-80
2022/08/23 06:42:28;;;;;;;16.47;10.90;;;22.20;99.90;;;;;;4770626;30;20303;-81
2022/08/23 06:45:41;;;;;;;23.23;11.07;;;22.20;99.90;;;;;;4771004;30;20264;-80
2022/08/23 06:48:28;;;;;;;25.53;10.97;;;22.30;99.90;;;;;;4770875;30;20300;-81
2022/08/23 06:51:16;;;;;;;29.33;11.73;;;22.50;99.90;;;;;;4777654;30;20237;-80
2022/08/23 06:53:53;;;;;;;21.83;10.67;;;22.50;99.90;;;;;;4783739;30;20205;-78
2022/08/23 06:56:22;;;;;;;25.03;11.07;;;22.70;99.90;;;;;;4775411;30;20299;-80
2022/08/23 06:59:28;;;;;;;17.77;10.87;;;22.90;99.90;;;;;;4787978;30;20306;-80
2022/08/23 07:02:34;;;;;;;28.23;11.73;;;23.00;99.90;;;;;;4772087;30;20216;-75
2022/08/23 07:05:01;;;;;;;21.87;10.57;;;23.20;99.90;;;;;;4773040;30;20201;-79
2022/08/23 07:07:28;;;;;;;18.40;10.87;;;23.30;99.90;;;;;;4758458;30;20222;-75
2022/08/23 07:10:10;;;;;;;17.90;10.13;;;23.30;99.90;;;;;;4773338;30;20242;-75
2022/08/23 07:12:40;;;;;;;17.73;10.57;;;23.40;99.90;;;;;;4772921;30;20239;-75
2022/08/23 07:15:08;;;;;;;16.20;10.30;;;23.50;99.90;;;;;;4808398;29;20215;-79
2022/08/23 07:17:37;;;;;;;19.87;11.13;;;23.50;99.90;;;;;;4795032;29;20259;-75
2022/08/23 07:20:05;;;;;;;19.92;10.48;;;23.60;99.90;;;;;;4825841;29;20314;-76
2022/08/23 07:22:43;;;;;;;19.45;10.68;;;23.60;99.90;;;;;;4794702;29;20310;-77
2022/08/23 07:25:25;;;;;;;21.23;10.80;;;23.60;99.90;;;;;;4825989;29;20202;-77
2022/08/23 07:27:53;;;;;;;14.87;9.80;;;23.80;99.90;;;;;;4809568;29;20298;-77
2022/08/23 07:30:36;;;;;;;15.30;10.23;;;23.90;99.90;;;;;;4809421;29;20267;-76
2022/08/23 07:33:12;;;;;;;19.43;9.80;;;24.00;99.90;;;;;;4804072;29;20224;-79
2022/08/23 07:36:11;;;;;;;19.27;10.17;;;24.10;99.90;;;;;;4792487;29;20203;-83
2022/08/23 07:38:38;;;;;;;22.88;10.48;;;24.20;99.90;;;;;;4813223;24;20238;-81
2022/08/23 07:44:16;;;;;;;18.90;9.70;;;24.40;99.90;;;;;;4798058;24;20251;-80
2022/08/23 07:50:06;;;;;;;22.25;11.32;;;24.50;99.90;;;;;;4796916;24;20253;-79
2022/08/23 07:52:34;;;;;;;16.57;10.03;;;24.70;99.90;;;;;;4832289;24;20247;-80
2022/08/23 07:55:05;;;;;;;20.70;10.65;;;24.90;99.90;;;;;;4824535;29;20743;-79
2022/08/23 07:57:32;;;;;;;22.98;10.25;;;25.00;99.90;;;;;;4824590;29;20207;-79
2022/08/23 07:59:59;;;;;;;19.70;10.00;;;25.10;99.90;;;;;;4824112;29;20313;-78
2022/08/23 08:02:32;;;;;;;24.30;11.23;;;25.20;99.90;;;;;;4824217;29;20211;-79
2022/08/23 08:05:06;;;;;;;20.30;10.73;;;25.30;99.90;;;;;;4824309;29;20203;-77
2022/08/23 08:07:33;;;;;;;25.52;11.10;;;25.50;99.90;;;;;;4824087;29;20221;-74
2022/08/23 08:10:11;;;;;;;24.27;11.30;;;25.60;99.90;;;;;;4823836;29;20207;-81
2022/08/23 08:12:38;;;;;;;17.85;10.00;;;25.90;99.90;;;;;;4823783;29;20251;-78
2022/08/23 08:15:15;;;;;;;20.98;9.73;;;26.30;99.90;;;;;;4823662;29;20328;-77
2022/08/23 08:18:01;;;;;;;19.25;10.15;;;26.40;99.90;;;;;;4842823;24;20241;-78
2022/08/23 08:20:34;;;;;;;21.02;10.02;;;26.40;99.90;;;;;;4843189;29;20839;-79
2022/08/23 08:23:32;;;;;;;16.58;9.02;;;26.30;99.90;;;;;;4841445;29;20633;-79
2022/08/23 08:26:10;;;;;;;18.33;9.43;;;26.10;99.90;;;;;;4848276;24;20270;-76
2022/08/23 08:28:56;;;;;;;22.98;10.07;;;26.10;99.90;;;;;;4855061;29;20186;-81
2022/08/23 08:31:24;;;;;;;21.05;10.82;;;26.10;99.90;;;;;;4847767;24;20230;-75
2022/08/23 08:33:52;;;;;;;25.85;10.63;;;26.10;99.90;;;;;;4823549;29;20230;-75
2022/08/23 08:36:40;;;;;;;18.60;9.80;;;26.20;99.90;;;;;;4824042;29;20294;-76
2022/08/23 08:39:11;;;;;;;20.00;10.70;;;26.20;99.90;;;;;;4839564;29;20264;-75
2022/08/23 08:42:17;;;;;;;19.38;9.85;;;26.10;99.90;;;;;;4826324;29;20214;-76
2022/08/23 08:44:59;;;;;;;19.13;10.07;;;26.10;99.90;;;;;;4841690;29;20207;-77
2022/08/23 08:47:49;;;;;;;18.50;10.20;;;26.20;99.90;;;;;;4826753;29;20218;-75
2022/08/23 08:50:23;;;;;;;20.23;10.30;;;26.30;99.90;;;;;;4824602;29;20217;-76
2022/08/23 08:53:01;;;;;;;24.13;10.70;;;26.40;99.90;;;;;;4826261;29;20203;-77
2022/08/23 08:56:00;;;;;;;20.52;10.65;;;26.40;99.90;;;;;;4823414;29;20267;-78
2022/08/23 08:58:44;;;;;;;20.50;9.95;;;26.50;99.90;;;;;;4823720;29;20211;-77
2022/08/23 09:01:23;;;;;;;23.38;10.38;;;26.70;99.90;;;;;;4823038;29;20705;-79
2022/08/23 09:03:51;;;;;;;15.35;9.75;;;26.90;99.90;;;;;;4824786;29;20202;-79
2022/08/23 09:06:27;;;;;;;19.63;10.00;;;27.10;99.90;;;;;;4823017;29;20234;-77
2022/08/23 09:09:29;;;;;;;19.85;10.23;;;27.40;99.90;;;;;;4823028;29;20654;-76
2022/08/23 09:12:43;;;;;;;18.05;9.90;;;27.70;99.90;;;;;;4811413;29;20225;-80
2022/08/23 09:15:33;;;;;;;22.48;10.25;;;27.90;99.90;;;;;;4822955;29;20238;-74
2022/08/23 09:18:13;;;;;;;18.40;9.50;;;27.80;99.90;;;;;;4822920;29;20253;-79
2022/08/23 09:20:41;;;;;;;36.95;11.80;;;27.80;99.90;;;;;;4822731;29;20326;-77
2022/08/23 09:23:41;;;;;;;24.27;9.95;;;27.80;99.90;;;;;;4822929;29;20298;-77
2022/08/23 09:26:23;;;;;;;21.60;10.57;;;27.80;99.90;;;;;;4820691;29;20294;-75
2022/08/23 09:28:55;;;;;;;20.90;9.93;;;28.20;99.90;;;;;;4837491;29;20289;-78
2022/08/23 09:31:37;;;;;;;17.98;9.57;;;28.80;99.90;;;;;;4837518;29;20245;-72
2022/08/23 09:34:04;;;;;;;20.02;9.93;;;29.50;99.90;;;;;;4822577;29;20272;-74
2022/08/23 09:36:36;;;;;;;18.05;9.02;;;30.00;99.90;;;;;;4823028;29;20203;-72
2022/08/23 09:39:07;;;;;;;24.70;9.55;;;30.50;99.90;;;;;;4837750;29;20207;-74
2022/08/23 09:41:40;;;;;;;18.80;9.05;;;31.10;99.90;;;;;;4822856;29;20660;-75
2022/08/23 09:44:12;;;;;;;15.70;9.02;;;31.50;99.90;;;;;;4807273;29;20225;-73
2022/08/23 09:46:42;;;;;;;18.17;9.00;;;31.60;99.90;;;;;;4823035;29;20274;-75
2022/08/23 09:49:28;;;;;;;20.20;9.73;;;31.80;99.90;;;;;;4822944;29;20210;-74
2022/08/23 09:52:00;;;;;;;23.33;8.77;;;32.10;99.90;;;;;;4823832;29;20202;-71
2022/08/23 09:54:35;;;;;;;19.58;9.00;;;32.10;99.90;;;;;;4822926;29;20710;-69
2022/08/23 09:57:05;;;;;;;22.80;8.85;;;32.20;99.90;;;;;;4823763;29;20560;-69
2022/08/23 09:59:40;;;;;;;18.60;8.70;;;32.30;99.90;;;;;;4822892;29;20681;-70
2022/08/23 10:02:15;;;;;;;21.73;8.80;;;32.20;99.90;;;;;;4837844;29;20289;-72
2022/08/23 10:04:54;;;;;;;24.25;8.80;;;31.90;99.90;;;;;;4822517;29;20656;-68
2022/08/23 10:07:42;;;;;;;19.75;8.73;;;31.90;99.90;;;;;;4822467;29;20267;-70
2022/08/23 10:10:30;;;;;;;18.70;8.82;;;31.70;99.90;;;;;;4822673;29;20207;-72
2022/08/23 10:12:58;;;;;;;22.45;9.68;;;31.80;99.90;;;;;;4822409;29;20211;-69
2022/08/23 10:15:42;;;;;;;20.33;9.25;;;31.90;99.90;;;;;;4823323;29;20244;-74
2022/08/23 10:18:33;;;;;;;22.15;8.90;;;31.90;99.90;;;;;;4822778;29;20207;-71
2022/08/23 10:21:10;;;;;;;22.48;8.65;;;31.90;99.90;;;;;;4822175;29;20230;-69
2022/08/23 10:24:23;;;;;;;20.67;8.77;;;32.10;99.90;;;;;;4822269;29;20230;-70
2022/08/23 10:26:59;;;;;;;20.38;7.97;;;32.10;99.90;;;;;;4823246;29;20209;-70
2022/08/23 10:29:39;;;;;;;21.42;7.80;;;32.50;99.90;;;;;;4823046;29;20206;-69
2022/08/23 10:32:15;;;;;;;18.02;7.80;;;32.70;99.90;;;;;;4824157;29;20256;-68
2022/08/23 10:34:57;;;;;;;13.57;7.38;;;32.90;99.90;;;;;;4823058;29;20222;-69
2022/08/23 10:37:36;;;;;;;15.57;7.30;;;33.40;99.90;;;;;;4823461;29;20229;-70
2022/08/23 10:40:34;;;;;;;32.65;9.13;;;33.50;99.90;;;;;;4824391;29;20646;-75
2022/08/23 10:43:24;;;;;;;17.10;6.30;;;33.40;99.90;;;;;;4824967;29;20207;-73
2022/08/23 10:45:52;;;;;;;19.83;6.90;;;33.30;99.90;;;;;;4844788;24;20246;-76
2022/08/23 10:48:30;;;;;;;27.35;6.95;;;33.30;99.90;;;;;;4844658;29;20566;-80
2022/08/23 10:51:02;;;;;;;20.20;7.22;;;33.10;99.90;;;;;;4843573;29;20220;-76
2022/08/23 10:53:47;;;;;;;21.52;6.95;;;33.00;99.90;;;;;;4843893;29;20238;-76
2022/08/23 10:56:20;;;;;;;22.20;6.30;;;32.70;99.90;;;;;;4843580;29;20216;-75
2022/08/23 10:58:51;;;;;;;26.33;5.80;;;32.70;99.90;;;;;;4843725;29;20317;-77
2022/08/23 11:01:25;;;;;;;18.98;5.50;;;32.70;99.90;;;;;;4843352;29;20253;-76
2022/08/23 11:04:13;;;;;;;14.68;4.93;;;32.60;99.90;;;;;;4845303;29;20206;-77
2022/08/23 11:06:46;;;;;;;19.25;5.05;;;32.60;99.90;;;;;;4844657;29;20202;-76
2022/08/23 11:09:19;;;;;;;17.27;5.03;;;32.80;99.90;;;;;;4842930;29;20247;-76
2022/08/23 11:12:19;;;;;;;19.17;5.05;;;33.00;99.90;;;;;;4840162;29;20202;-77
2022/08/23 11:15:05;;;;;;;21.88;5.30;;;33.30;99.90;;;;;;4844424;29;20209;-78
2022/08/23 11:18:01;;;;;;;19.98;5.10;;;33.80;99.90;;;;;;4828007;29;20234;-73
2022/08/23 11:20:50;;;;;;;19.25;5.10;;;34.00;99.90;;;;;;4843913;29;20240;-74
2022/08/23 11:23:45;;;;;;;24.08;5.65;;;34.10;99.90;;;;;;4842976;29;20213;-73
2022/08/23 11:26:25;;;;;;;23.83;5.00;;;34.40;99.90;;;;;;4808604;29;20689;-74
2022/08/23 11:29:21;;;;;;;19.38;5.22;;;34.60;99.90;;;;;;4808435;29;20249;-75
2022/08/23 11:32:05;;;;;;;26.10;5.93;;;34.40;99.90;;;;;;4823411;29;20290;-74
2022/08/23 11:35:03;;;;;;;27.02;5.93;;;34.20;99.90;;;;;;4808245;29;20334;-73
2022/08/23 11:37:54;;;;;;;22.45;5.60;;;34.30;99.90;;;;;;4808327;29;20250;-73
2022/08/23 11:40:55;;;;;;;27.75;5.78;;;34.50;99.90;;;;;;4808341;29;20226;-74
2022/08/23 11:43:33;;;;;;;22.38;5.75;;;34.60;99.90;;;;;;4823457;29;20669;-73
2022/08/23 11:46:21;;;;;;;21.90;5.00;;;34.60;99.90;;;;;;4808212;29;20234;-73
2022/08/23 11:48:58;;;;;;;23.88;5.28;;;34.90;99.90;;;;;;4823372;29;20685;-75
2022/08/23 11:51:46;;;;;;;23.30;5.35;;;34.40;99.20;;;;;;4822256;29;20230;-74
2022/08/23 11:54:31;;;;;;;23.88;5.40;;;34.20;99.90;;;;;;4807962;29;20227;-74
2022/08/23 11:57:29;;;;;;;32.08;5.80;;;34.40;99.30;;;;;;4807828;29;20613;-73
2022/08/23 12:00:13;;;;;;;25.95;5.65;;;34.60;99.60;;;;;;4822994;29;20250;-74
2022/08/23 12:02:51;;;;;;;22.95;5.45;;;34.90;98.50;;;;;;4810510;29;20558;-74
2022/08/23 12:05:31;;;;;;;21.65;5.22;;;35.20;98.70;;;;;;4823635;29;20214;-75
2022/08/23 12:08:01;;;;;;;21.15;5.10;;;35.70;97.60;;;;;;4823591;29;20202;-75
2022/08/23 12:10:40;;;;;;;23.08;5.45;;;36.10;96.60;;;;;;4825150;29;20199;-73
2022/08/23 12:13:21;;;;;;;17.85;5.28;;;36.70;96.40;;;;;;4823380;29;20210;-74
2022/08/23 12:16:08;;;;;;;29.92;5.90;;;37.10;94.80;;;;;;4825435;29;20203;-74
2022/08/23 12:18:51;;;;;;;26.88;5.18;;;37.00;94.20;;;;;;4824245;29;20195;-73
2022/08/23 12:21:24;;;;;;;22.13;4.88;;;37.10;93.70;;;;;;4823352;29;20233;-71
2022/08/23 12:23:56;;;;;;;21.63;5.10;;;36.90;93.00;;;;;;4825123;29;20267;-72
2022/08/23 12:26:51;;;;;;;27.55;4.93;;;36.70;92.80;;;;;;4823830;29;20318;-75
2022/08/23 12:29:32;;;;;;;21.25;5.43;;;36.40;92.70;;;;;;4823774;29;20203;-75
2022/08/23 12:32:20;;;;;;;22.98;5.45;;;36.30;93.20;;;;;;4823156;29;20249;-73
2022/08/23 12:34:59;;;;;;;22.33;4.88;;;35.80;93.60;;;;;;4823238;29;20226;-76
2022/08/23 12:38:06;;;;;;;23.73;5.15;;;35.90;93.10;;;;;;4823357;29;20206;-74
2022/08/23 12:40:38;;;;;;;20.42;5.53;;;36.10;92.30;;;;;;4823181;29;20250;-73
2022/08/23 12:43:10;;;;;;;24.58;5.47;;;36.30;92.10;;;;;;4823498;29;20657;-77
2022/08/23 12:45:51;;;;;;;19.90;5.00;;;36.70;91.60;;;;;;4824837;29;20321;-73
2022/08/23 12:48:22;;;;;;;27.23;5.07;;;37.00;91.50;;;;;;4823522;29;20258;-75
2022/08/23 12:50:55;;;;;;;25.27;5.20;;;37.40;90.20;;;;;;4838005;29;20640;-72
2022/08/23 12:53:35;;;;;;;24.65;6.07;;;37.80;89.60;;;;;;4822975;29;20209;-72
2022/08/23 12:56:18;;;;;;;30.10;5.30;;;38.20;87.90;;;;;;4825147;29;20553;-73
2022/08/23 12:58:52;;;;;;;21.70;4.75;;;38.50;85.40;;;;;;4823172;29;20206;-75
2022/08/23 13:01:32;;;;;;;30.40;5.63;;;38.80;82.40;;;;;;4822920;29;20239;-74
2022/08/23 13:04:10;;;;;;;19.25;4.82;;;38.90;81.20;;;;;;4823597;29;20203;-75
2022/08/23 13:06:49;;;;;;;24.38;4.85;;;38.90;79.70;;;;;;4823417;29;20211;-74
2022/08/23 13:09:23;;;;;;;26.58;5.32;;;38.80;79.30;;;;;;4823293;29;20206;-74
2022/08/23 13:11:51;;;;;;;19.15;4.70;;;38.60;77.80;;;;;;4823091;29;20214;-73
2022/08/23 13:14:42;;;;;;;27.33;4.97;;;38.50;78.90;;;;;;4822951;29;20294;-74
2022/08/23 13:17:21;;;;;;;27.77;4.97;;;38.20;78.00;;;;;;4823183;29;20199;-74
2022/08/23 13:20:11;;;;;;;26.45;5.40;;;37.90;77.60;;;;;;4824306;29;20233;-74
2022/08/23 13:22:54;;;;;;;33.90;5.68;;;37.70;78.40;;;;;;4822801;29;20253;-73
2022/08/23 13:25:31;;;;;;;27.80;5.53;;;37.40;78.40;;;;;;4823285;29;20547;-74
2022/08/23 13:28:23;;;;;;;32.25;5.40;;;37.10;78.40;;;;;;4822901;29;20210;-73
2022/08/23 13:31:07;;;;;;;29.83;5.53;;;36.80;78.60;;;;;;4822720;29;20211;-69
2022/08/23 13:33:35;;;;;;;30.42;5.50;;;36.80;79.90;;;;;;4822871;29;20604;-70
2022/08/23 13:36:30;;;;;;;30.90;5.72;;;36.50;78.50;;;;;;4822725;29;20629;-70
2022/08/23 13:39:04;;;;;;;28.17;5.55;;;36.50;78.20;;;;;;4822052;29;20210;-69
2022/08/23 13:41:35;;;;;;;32.65;5.95;;;36.30;78.80;;;;;;4822692;29;20222;-71
2022/08/23 13:44:07;;;;;;;43.05;6.68;;;36.10;79.60;;;;;;4822780;29;20545;-71
2022/08/23 13:46:44;;;;;;;33.35;6.35;;;35.70;80.50;;;;;;4822676;29;20330;-70
2022/08/23 13:49:22;;;;;;;30.17;5.85;;;35.50;81.00;;;;;;4822613;29;20233;-71
2022/08/23 13:51:58;;;;;;;35.10;6.57;;;35.50;81.80;;;;;;4822351;29;20749;-69
2022/08/23 13:54:45;;;;;;;30.75;5.60;;;35.30;81.30;;;;;;4824217;29;20285;-69
2022/08/23 13:57:20;;;;;;;31.30;6.15;;;35.20;81.30;;;;;;4823005;29;20562;-70
2022/08/23 13:59:53;;;;;;;33.38;5.78;;;35.00;81.60;;;;;;4824347;29;20661;-69
2022/08/23 14:02:21;;;;;;;24.25;5.45;;;34.70;82.40;;;;;;4822131;29;20313;-70
2022/08/23 14:04:49;;;;;;;33.95;5.70;;;34.40;83.00;;;;;;4822921;29;20628;-70
2022/08/23 14:07:16;;;;;;;36.47;6.63;;;34.10;83.20;;;;;;4823570;29;20286;-69
2022/08/23 14:09:43;;;;;;;36.13;6.20;;;34.00;84.70;;;;;;4823944;29;20207;-70
2022/08/23 14:12:15;;;;;;;36.17;6.60;;;33.80;84.50;;;;;;4823618;29;20233;-69
2022/08/23 14:14:44;;;;;;;42.13;6.30;;;33.90;84.20;;;;;;4824430;29;20234;-70
2022/08/23 14:17:12;;;;;;;42.72;6.30;;;33.70;83.40;;;;;;4825867;29;20199;-71
2022/08/23 14:19:45;;;;;;;32.70;5.47;;;33.50;83.20;;;;;;4822688;29;20307;-71
2022/08/23 14:22:34;;;;;;;38.85;6.03;;;33.20;84.40;;;;;;4825304;29;20230;-70
2022/08/23 14:25:01;;;;;;;32.55;5.93;;;32.70;84.10;;;;;;4825886;29;20646;-68
2022/08/23 14:27:28;;;;;;;38.13;6.38;;;32.50;84.40;;;;;;4825813;29;20289;-69
2022/08/23 14:29:55;;;;;;;38.05;6.55;;;32.20;85.80;;;;;;4825364;29;20198;-69
2022/08/23 14:32:21;;;;;;;37.22;6.18;;;32.00;86.70;;;;;;4825625;29;20301;-70
2022/08/23 14:34:49;;;;;;;34.13;6.22;;;31.80;87.40;;;;;;4825449;29;20310;-70
2022/08/23 14:37:15;;;;;;;36.53;6.43;;;31.70;88.40;;;;;;4828129;29;20286;-76
2022/08/23 14:40:03;;;;;;;35.90;5.80;;;31.50;89.50;;;;;;4819593;29;20210;-77
2022/08/23 14:42:30;;;;;;;38.90;5.97;;;31.30;90.20;;;;;;4825806;29;20230;-77
2022/08/23 14:44:57;;;;;;;40.90;7.35;;;31.10;90.30;;;;;;4825344;29;20329;-73
2022/08/23 14:47:25;;;;;;;38.05;6.55;;;31.10;90.80;;;;;;4826941;29;20237;-70
2022/08/23 14:49:52;;;;;;;41.25;7.05;;;31.00;91.20;;;;;;4825178;29;20218;-71
2022/08/23 14:52:20;;;;;;;33.88;5.63;;;31.00;91.10;;;;;;4825381;29;20215;-71
2022/08/23 14:54:47;;;;;;;30.08;6.05;;;30.90;91.50;;;;;;4825532;29;20289;-70
2022/08/23 14:57:16;;;;;;;36.25;6.82;;;30.80;91.50;;;;;;4825302;29;20210;-69
2022/08/23 14:59:43;;;;;;;40.35;6.38;;;30.80;91.70;;;;;;4825430;29;20673;-71
2022/08/23 15:02:15;;;;;;;32.20;6.65;;;30.80;92.00;;;;;;4825326;29;20238;-70
2022/08/23 15:04:42;;;;;;;34.47;6.70;;;30.70;92.00;;;;;;4825034;29;20705;-73
2022/08/23 15:07:09;;;;;;;36.05;6.20;;;30.70;92.20;;;;;;4809860;29;20298;-70
2022/08/23 15:09:53;;;;;;;41.22;6.50;;;30.70;93.20;;;;;;4824723;29;20213;-71